Mashfork, Kentucky
Current Conditions -  °F | °C
As of 11:19 AM on Thursday 18 Dec 2014 (Local Time) from KJKL Reporting Station
Overcast Overcast  
Wind Chill: 32°   Ceiling: 1500
Heat Index: 32°   Visibility: 10mi
Dew Point: 23°   Wind: 3mph
Humidity: 69%   Direction: NA
Pressure: 30.23"   Gusts: NA
Location:  37.7261°N, 83.0786°W
Report Text: KJKL 181619Z AUTO VRB03KT 10SM OVC015 00/M05 A3023 RMK AO2 T00001050
Loading
Personal Weather Stations






























Interactive Weather Map New forecast layout! Learn more

10-Day Weather Forecast

Advertisements
Track Severe Weather on mobile